Enterprise, Utah
Current Conditions -  °F | °C
As of 5:53 AM on Sunday 21 Dec 2014 (Local Time) from KCDC Reporting Station
Scattered Clouds Scattered Clouds  
Wind Chill: 25°   Ceiling: Unl
Heat Index: 31°   Visibility: 10mi
Dew Point: 26°   Wind: 6mph
Humidity: 82%   Direction: 140°SE
Pressure: 30.08"   Gusts: NA
Location:  37.57°N, 113.72°W
Report Text: KCDC 211253Z AUTO 14005KT 10SM SCT055 M01/M03 A3008 RMK AO2 SLP186 T10061033
Loading
Personal Weather Stations






























Interactive Weather Map New forecast layout! Learn more

10-Day Weather Forecast

Advertisements
Track Severe Weather on mobile